Time;durP1;ratioP1;P1;durP2;ratioP2;P2;SDS_P1;SDS_P2;PMS_P1;PMS_P2;Temp;Humidity;BMP_temperature;BMP_pressure;BME280_temperature;BME280_humidity;BME280_pressure;Samples;Min_cycle;Max_cycle;Signal;HPM_P1;HPM_P2
2022/05/08 00:04:03;;;;;;;16.70;13.15;;;;;;;;;;10099582;29;20053;-68
2022/05/08 00:09:06;;;;;;;14.35;12.85;;;;;;;;;;10117099;29;20241;-67
2022/05/08 00:14:09;;;;;;;14.35;12.65;;;;;;;;;;10107492;29;20319;-68
2022/05/08 00:19:12;;;;;;;22.52;14.27;;;;;;;;;;10084950;29;20076;-68
2022/05/08 00:24:14;;;;;;;17.27;13.10;;;;;;;;;;10077392;29;20053;-67
2022/05/08 00:29:18;;;;;;;17.33;13.63;;;;;;;;;;10077210;29;20244;-68
2022/05/08 00:34:20;;;;;;;22.75;14.55;;;;;;;;;;10086662;29;20049;-67
2022/05/08 00:39:22;;;;;;;18.42;14.43;;;;;;;;;;10077431;29;20090;-67
2022/05/08 00:44:27;;;;;;;16.48;14.50;;;;;;;;;;10077489;29;20046;-67
2022/05/08 00:49:29;;;;;;;18.75;14.02;;;;;;;;;;10103430;29;20045;-67
2022/05/08 00:54:32;;;;;;;18.13;14.88;;;;;;;;;;10112057;29;20251;-68
2022/05/08 00:59:36;;;;;;;16.98;14.50;;;;;;;;;;10093775;29;20069;-68
2022/05/08 01:04:39;;;;;;;20.70;13.80;;;;;;;;;;10075951;29;20061;-68
2022/05/08 01:09:41;;;;;;;19.13;15.57;;;;;;;;;;10073880;29;20060;-67
2022/05/08 01:14:45;;;;;;;18.30;15.30;;;;;;;;;;10081954;29;20375;-68
2022/05/08 01:19:47;;;;;;;19.48;14.73;;;;;;;;;;10103430;29;20389;-68
2022/05/08 01:24:52;;;;;;;21.85;15.32;;;;;;;;;;10074452;29;20066;-68
2022/05/08 01:29:54;;;;;;;18.00;15.38;;;;;;;;;;10074967;29;20048;-68
2022/05/08 01:34:56;;;;;;;18.67;14.13;;;;;;;;;;10074147;29;20061;-68
2022/05/08 01:40:00;;;;;;;16.25;13.20;;;;;;;;;;10097568;29;20056;-68
2022/05/08 01:45:03;;;;;;;17.50;13.50;;;;;;;;;;10080878;29;20065;-67
2022/05/08 01:50:06;;;;;;;16.80;13.45;;;;;;;;;;10081555;29;20049;-68
2022/05/08 01:55:10;;;;;;;17.90;13.52;;;;;;;;;;10106728;29;20060;-67
2022/05/08 02:00:14;;;;;;;17.88;12.32;;;;;;;;;;10087097;29;20061;-68
2022/05/08 02:05:17;;;;;;;16.98;13.75;;;;;;;;;;10091137;29;20418;-68
2022/05/08 02:10:21;;;;;;;14.50;12.13;;;;;;;;;;10080433;29;20054;-68
2022/05/08 02:15:24;;;;;;;14.43;12.90;;;;;;;;;;10080551;29;20081;-68
2022/05/08 02:20:27;;;;;;;17.27;13.88;;;;;;;;;;10081972;29;20050;-68
2022/05/08 02:25:31;;;;;;;14.10;12.38;;;;;;;;;;10079416;29;20059;-68
2022/05/08 02:30:34;;;;;;;16.97;13.00;;;;;;;;;;10079757;29;20060;-68
2022/05/08 02:35:36;;;;;;;13.90;12.27;;;;;;;;;;10080993;29;20349;-68
2022/05/08 02:40:39;;;;;;;15.45;12.57;;;;;;;;;;10093278;29;20077;-68
2022/05/08 02:45:42;;;;;;;17.80;12.45;;;;;;;;;;10078884;29;20057;-68
2022/05/08 02:50:45;;;;;;;16.38;12.75;;;;;;;;;;10078723;29;20050;-68
2022/05/08 03:01:06;;;;;;;15.25;12.35;;;;;;;;;;10108181;29;20309;-68
2022/05/08 03:06:08;;;;;;;14.40;12.18;;;;;;;;;;10098679;29;20061;-68
2022/05/08 03:11:29;;;;;;;17.33;11.88;;;;;;;;;;10079618;29;20046;-68
2022/05/08 03:16:31;;;;;;;17.77;13.02;;;;;;;;;;10092111;29;20056;-68
2022/05/08 03:21:34;;;;;;;16.38;13.15;;;;;;;;;;10096327;29;20148;-68
2022/05/08 03:26:38;;;;;;;14.07;11.63;;;;;;;;;;10093460;29;20056;-68
2022/05/08 03:31:40;;;;;;;12.40;11.10;;;;;;;;;;10097602;29;20060;-68
2022/05/08 03:36:43;;;;;;;14.18;11.43;;;;;;;;;;10094250;29;20083;-68
2022/05/08 03:41:47;;;;;;;14.15;10.70;;;;;;;;;;10080986;29;20049;-68
2022/05/08 03:46:50;;;;;;;15.20;11.43;;;;;;;;;;10077116;29;20061;-67
2022/05/08 03:51:52;;;;;;;16.52;11.23;;;;;;;;;;10078240;29;20461;-67
2022/05/08 03:56:56;;;;;;;12.88;10.80;;;;;;;;;;10079580;29;20313;-68
2022/05/08 04:01:59;;;;;;;16.13;10.88;;;;;;;;;;10079802;29;20243;-68
2022/05/08 04:07:01;;;;;;;15.52;11.70;;;;;;;;;;10110472;29;20139;-67
2022/05/08 04:12:06;;;;;;;14.90;11.73;;;;;;;;;;10078439;29;20069;-67
2022/05/08 04:17:08;;;;;;;15.10;11.18;;;;;;;;;;10076457;29;20060;-67
2022/05/08 04:27:31;;;;;;;14.32;9.40;;;;;;;;;;10089173;29;20256;-67
2022/05/08 04:32:34;;;;;;;12.07;9.45;;;;;;;;;;10080694;29;21570;-67
2022/05/08 04:37:36;;;;;;;10.77;8.75;;;;;;;;;;10075460;29;20053;-68
2022/05/08 04:42:40;;;;;;;12.35;9.30;;;;;;;;;;10077295;29;20052;-67
2022/05/08 04:47:43;;;;;;;13.85;8.68;;;;;;;;;;10087652;29;20076;-68
2022/05/08 04:52:45;;;;;;;10.30;8.57;;;;;;;;;;10094118;29;20046;-67
2022/05/08 04:57:48;;;;;;;11.00;8.20;;;;;;;;;;10074995;29;20053;-68
2022/05/08 05:02:51;;;;;;;10.48;8.07;;;;;;;;;;10072608;29;20209;-67
2022/05/08 05:07:54;;;;;;;9.15;7.78;;;;;;;;;;10075111;29;20320;-68
2022/05/08 05:12:58;;;;;;;9.80;7.88;;;;;;;;;;10084913;29;20057;-68
2022/05/08 05:18:01;;;;;;;10.73;7.18;;;;;;;;;;10091146;29;20045;-66
2022/05/08 05:23:04;;;;;;;10.23;7.85;;;;;;;;;;10076903;29;20053;-69
2022/05/08 05:28:08;;;;;;;9.50;8.32;;;;;;;;;;10075250;29;20057;-69
2022/05/08 05:33:15;;;;;;;10.23;6.95;;;;;;;;;;10111891;29;20281;-67
2022/05/08 05:38:17;;;;;;;7.53;6.75;;;;;;;;;;10120428;29;20048;-66
2022/05/08 05:43:21;;;;;;;7.38;6.35;;;;;;;;;;10102675;29;20065;-67
2022/05/08 05:48:23;;;;;;;7.18;5.68;;;;;;;;;;10075179;29;20057;-67
2022/05/08 05:53:26;;;;;;;8.55;5.45;;;;;;;;;;10068351;29;20057;-67
2022/05/08 05:58:30;;;;;;;7.18;5.97;;;;;;;;;;10073114;29;20076;-69
2022/05/08 06:03:33;;;;;;;8.23;6.30;;;;;;;;;;10100251;29;20046;-66
2022/05/08 06:08:35;;;;;;;11.27;7.55;;;;;;;;;;10073725;29;20082;-67
2022/05/08 06:13:39;;;;;;;6.40;5.80;;;;;;;;;;10103973;29;20057;-67
2022/05/08 06:18:41;;;;;;;;;;;;;;;;;;10117123;29;20257;-67
2022/05/08 06:23:43;;;;;;;12.32;9.98;;;;;;;;;;10111029;29;19927;-68
2022/05/08 06:28:48;;;;;;;6.93;5.72;;;;;;;;;;10113904;29;20360;-67
2022/05/08 06:33:50;;;;;;;8.75;6.53;;;;;;;;;;10120151;29;20071;-68
2022/05/08 06:38:53;;;;;;;8.60;6.28;;;;;;;;;;10118139;29;20041;-68
2022/05/08 06:43:57;;;;;;;8.83;6.93;;;;;;;;;;10114889;29;20057;-67
2022/05/08 06:48:59;;;;;;;;;;;;;;;;;;10116113;29;20105;-67
2022/05/08 06:54:02;;;;;;;12.95;5.60;;;;;;;;;;10078498;29;20127;-66
2022/05/08 07:04:27;;;;;;;6.18;5.60;;;;;;;;;;10131339;29;20340;-68
2022/05/08 07:09:29;;;;;;;8.45;6.05;;;;;;;;;;10087723;29;20249;-68
2022/05/08 07:14:34;;;;;;;10.40;6.40;;;;;;;;;;10097484;29;20053;-70
2022/05/08 07:19:36;;;;;;;6.40;5.82;;;;;;;;;;10075298;29;20041;-68
2022/05/08 07:24:40;;;;;;;9.77;6.18;;;;;;;;;;10076665;29;20336;-69
2022/05/08 07:29:44;;;;;;;7.97;6.15;;;;;;;;;;10077491;29;20339;-71
2022/05/08 07:40:07;;;;;;;7.97;5.72;;;;;;;;;;10091447;29;20065;-70
2022/05/08 07:45:11;;;;;;;7.40;6.15;;;;;;;;;;10079306;29;20038;-73
2022/05/08 07:50:14;;;;;;;7.07;6.38;;;;;;;;;;10078185;29;20045;-70
2022/05/08 07:55:16;;;;;;;9.23;6.22;;;;;;;;;;10078425;29;20097;-70
2022/05/08 08:00:20;;;;;;;7.80;6.07;;;;;;;;;;10085622;29;20058;-73
2022/05/08 08:05:23;;;;;;;19.58;12.40;;;;;;;;;;10078260;29;20106;-72
2022/05/08 08:10:25;;;;;;;9.75;7.57;;;;;;;;;;10085450;29;20245;-73
2022/05/08 08:15:29;;;;;;;42.58;14.48;;;;;;;;;;10076701;29;20060;-70
2022/05/08 08:20:31;;;;;;;14.73;10.05;;;;;;;;;;10076673;29;20046;-70
2022/05/08 08:25:34;;;;;;;31.15;14.23;;;;;;;;;;10075347;29;20053;-70
2022/05/08 08:30:38;;;;;;;17.40;11.35;;;;;;;;;;10076003;29;20041;-73
2022/05/08 08:35:40;;;;;;;15.23;10.05;;;;;;;;;;10084294;29;20050;-70
2022/05/08 08:40:43;;;;;;;14.60;10.63;;;;;;;;;;10076298;29;20056;-72
2022/05/08 08:51:07;;;;;;;13.95;10.85;;;;;;;;;;10089373;29;20102;-68
2022/05/08 08:56:10;;;;;;;11.18;7.90;;;;;;;;;;10075718;29;20098;-66
2022/05/08 09:01:16;;;;;;;11.32;8.00;;;;;;;;;;10104279;29;20069;-68
2022/05/08 09:06:18;;;;;;;13.82;10.35;;;;;;;;;;10109780;29;20113;-68
2022/05/08 09:11:33;;;;;;;6.72;5.53;;;;;;;;;;10098298;29;20371;-68
2022/05/08 09:16:54;;;;;;;5.68;4.35;;;;;;;;;;10074922;29;20057;-69
2022/05/08 09:22:00;;;;;;;10.95;5.13;;;;;;;;;;10097277;29;20052;-69
2022/05/08 09:27:13;;;;;;;10.38;6.82;;;;;;;;;;10113141;29;20045;-69
2022/05/08 09:32:35;;;;;;;9.00;6.00;;;;;;;;;;10080566;29;20110;-69
2022/05/08 09:37:53;;;;;;;14.15;5.13;;;;;;;;;;10115637;29;20094;-69
2022/05/08 09:42:55;;;;;;;5.18;3.97;;;;;;;;;;10101598;29;20113;-68
2022/05/08 09:48:00;;;;;;;5.27;2.90;;;;;;;;;;10088178;29;20049;-68
2022/05/08 09:53:02;;;;;;;4.47;3.05;;;;;;;;;;10073932;29;20053;-69
2022/05/08 09:58:05;;;;;;;6.00;4.07;;;;;;;;;;10074530;29;20057;-67
2022/05/08 10:03:09;;;;;;;2.95;2.30;;;;;;;;;;10070166;29;20053;-67
2022/05/08 10:08:14;;;;;;;4.13;2.30;;;;;;;;;;10094174;29;20060;-69
2022/05/08 10:13:54;;;;;;;4.88;2.22;;;;;;;;;;10092942;29;20045;-69
2022/05/08 10:19:36;;;;;;;3.70;2.30;;;;;;;;;;10085173;29;20244;-68
2022/05/08 10:24:40;;;;;;;2.42;1.77;;;;;;;;;;10081335;29;20045;-70
2022/05/08 10:29:43;;;;;;;3.92;1.88;;;;;;;;;;10089580;29;20267;-69
2022/05/08 10:34:47;;;;;;;3.80;2.30;;;;;;;;;;10079606;29;20045;-69
2022/05/08 10:39:51;;;;;;;2.50;2.30;;;;;;;;;;10078810;29;20053;-70
2022/05/08 10:44:53;;;;;;;4.22;3.50;;;;;;;;;;10050187;29;20371;-69
2022/05/08 10:49:57;;;;;;;4.78;3.80;;;;;;;;;;10106310;29;20072;-69
2022/05/08 10:55:00;;;;;;;;;;;;;;;;;;10079972;29;20167;-69
2022/05/08 11:00:06;;;;;;;7.57;5.07;;;;;;;;;;10108841;29;19931;-69
2022/05/08 11:05:11;;;;;;;6.68;4.88;;;;;;;;;;10091542;29;20274;-68
2022/05/08 11:10:17;;;;;;;5.05;4.22;;;;;;;;;;10078943;29;20049;-71
2022/05/08 11:15:19;;;;;;;4.60;4.20;;;;;;;;;;10107056;29;20045;-72
2022/05/08 11:20:23;;;;;;;10.00;4.47;;;;;;;;;;10083869;29;20052;-70
2022/05/08 11:25:26;;;;;;;5.65;3.55;;;;;;;;;;10103976;29;20055;-69
2022/05/08 11:30:30;;;;;;;5.00;3.50;;;;;;;;;;10078399;29;20064;-69
2022/05/08 11:40:53;;;;;;;5.90;3.00;;;;;;;;;;10111419;29;20041;-70
2022/05/08 11:45:59;;;;;;;3.53;2.50;;;;;;;;;;10088995;29;20222;-72
2022/05/08 11:51:02;;;;;;;4.25;2.83;;;;;;;;;;10078441;29;20076;-70
2022/05/08 11:56:27;;;;;;;3.55;2.40;;;;;;;;;;10093067;29;20097;-70
2022/05/08 12:01:31;;;;;;;3.15;2.85;;;;;;;;;;10103675;29;20412;-71
2022/05/08 12:06:34;;;;;;;;;;;;;;;;;;10085813;29;20053;-69
2022/05/08 12:11:37;;;;;;;3.87;2.60;;;;;;;;;;10077346;29;19938;-71
2022/05/08 12:16:41;;;;;;;7.07;4.83;;;;;;;;;;10080836;29;20077;-70
2022/05/08 12:21:45;;;;;;;2.67;2.40;;;;;;;;;;10083881;29;20046;-70
2022/05/08 12:26:48;;;;;;;6.95;3.90;;;;;;;;;;10076496;29;20144;-70
2022/05/08 12:31:52;;;;;;;5.88;5.40;;;;;;;;;;10075759;29;20046;-70
2022/05/08 12:36:56;;;;;;;3.58;3.17;;;;;;;;;;10097709;29;20060;-73
2022/05/08 12:41:58;;;;;;;3.20;1.88;;;;;;;;;;10075667;29;20233;-68
2022/05/08 12:47:01;;;;;;;2.05;1.95;;;;;;;;;;10085470;29;20052;-68
2022/05/08 12:52:06;;;;;;;3.07;2.57;;;;;;;;;;10109949;29;20078;-69
2022/05/08 12:57:11;;;;;;;4.43;2.78;;;;;;;;;;10077184;29;20317;-69
2022/05/08 13:02:15;;;;;;;5.63;2.67;;;;;;;;;;10081780;29;20069;-69
2022/05/08 13:07:19;;;;;;;2.40;2.20;;;;;;;;;;10114421;29;20060;-68
2022/05/08 13:12:21;;;;;;;6.80;2.45;;;;;;;;;;10085842;29;20361;-68
2022/05/08 13:17:23;;;;;;;3.07;2.40;;;;;;;;;;10095971;29;20247;-68
2022/05/08 13:22:27;;;;;;;3.67;2.63;;;;;;;;;;10113897;29;20094;-68
2022/05/08 13:27:29;;;;;;;3.35;2.65;;;;;;;;;;10099711;29;20046;-68
2022/05/08 13:32:31;;;;;;;4.17;3.00;;;;;;;;;;10074319;29;20389;-68
2022/05/08 13:37:35;;;;;;;4.57;3.33;;;;;;;;;;10074996;29;20308;-67
2022/05/08 13:42:38;;;;;;;4.22;2.70;;;;;;;;;;10082207;29;20049;-69
2022/05/08 13:47:40;;;;;;;3.35;2.35;;;;;;;;;;10075622;29;20073;-69
2022/05/08 13:52:45;;;;;;;5.07;3.00;;;;;;;;;;10116240;29;20097;-69
2022/05/08 13:57:49;;;;;;;9.32;2.47;;;;;;;;;;10119393;29;20061;-67
2022/05/08 14:02:51;;;;;;;2.78;2.58;;;;;;;;;;10095222;29;20081;-68
2022/05/08 14:07:56;;;;;;;2.60;2.40;;;;;;;;;;10080188;29;20082;-68
2022/05/08 14:12:58;;;;;;;4.65;2.88;;;;;;;;;;10088156;29;20059;-67
2022/05/08 14:18:01;;;;;;;5.35;2.85;;;;;;;;;;10110074;29;20080;-68
2022/05/08 14:23:05;;;;;;;3.03;2.38;;;;;;;;;;10088488;29;20057;-69
2022/05/08 14:28:07;;;;;;;4.97;2.47;;;;;;;;;;10080681;29;20384;-68
2022/05/08 14:38:42;;;;;;;6.45;3.03;;;;;;;;;;10032259;29;20412;-68
2022/05/08 14:43:46;;;;;;;8.30;2.33;;;;;;;;;;10017731;29;20058;-67
2022/05/08 14:48:48;;;;;;;;;;;;;;;;;;10028453;29;20114;-68
2022/05/08 14:53:52;;;;;;;10.27;2.75;;;;;;;;;;10037821;29;20168;-69
2022/05/08 14:58:54;;;;;;;4.72;2.25;;;;;;;;;;10035570;29;20321;-67
2022/05/08 15:03:57;;;;;;;8.82;2.47;;;;;;;;;;10021501;29;20058;-67
2022/05/08 15:09:01;;;;;;;5.43;2.72;;;;;;;;;;10037247;29;20061;-66
2022/05/08 15:14:03;;;;;;;13.40;2.58;;;;;;;;;;10103611;29;20071;-68
2022/05/08 15:19:06;;;;;;;6.15;2.20;;;;;;;;;;10078462;29;20049;-68
2022/05/08 15:24:09;;;;;;;11.93;2.70;;;;;;;;;;10098776;29;20045;-67
2022/05/08 15:29:11;;;;;;;7.85;3.28;;;;;;;;;;10117306;29;20053;-67
2022/05/08 15:34:15;;;;;;;6.30;2.63;;;;;;;;;;10107793;29;20463;-67
2022/05/08 15:39:19;;;;;;;5.93;2.03;;;;;;;;;;10102455;29;20056;-67
2022/05/08 15:44:21;;;;;;;5.68;1.90;;;;;;;;;;10115910;29;20044;-68
2022/05/08 15:49:24;;;;;;;11.95;2.50;;;;;;;;;;10113100;29;20196;-68
2022/05/08 15:54:27;;;;;;;8.20;2.30;;;;;;;;;;10115956;29;20045;-70
2022/05/08 15:59:32;;;;;;;5.55;2.30;;;;;;;;;;10038587;29;20332;-67
2022/05/08 16:04:34;;;;;;;7.95;2.40;;;;;;;;;;10117631;29;20053;-66
2022/05/08 16:09:38;;;;;;;8.65;2.53;;;;;;;;;;10101307;29;20100;-71
2022/05/08 16:25:22;;;;;;;10.38;2.72;;;;;;;;;;10126712;29;20040;-68
2022/05/08 16:30:24;;;;;;;4.97;2.57;;;;;;;;;;10114688;29;20052;-69
2022/05/08 16:35:26;;;;;;;7.00;2.75;;;;;;;;;;10113362;29;20048;-70
2022/05/08 16:40:30;;;;;;;7.57;2.95;;;;;;;;;;10119301;29;20057;-67
2022/05/08 16:45:32;;;;;;;11.45;4.72;;;;;;;;;;10115261;29;20049;-73
2022/05/08 16:50:35;;;;;;;8.65;2.50;;;;;;;;;;10112471;29;20053;-68
2022/05/08 16:55:39;;;;;;;6.78;3.45;;;;;;;;;;10103846;29;20218;-68
2022/05/08 17:00:43;;;;;;;8.82;2.97;;;;;;;;;;10107810;29;20244;-68
2022/05/08 17:05:45;;;;;;;10.03;2.73;;;;;;;;;;10113249;29;20049;-69
2022/05/08 17:10:49;;;;;;;8.00;2.97;;;;;;;;;;10102977;29;20136;-68
2022/05/08 17:15:52;;;;;;;9.50;2.42;;;;;;;;;;10095591;29;20324;-69
2022/05/08 17:20:54;;;;;;;6.47;2.78;;;;;;;;;;10100143;29;20048;-69
2022/05/08 17:25:58;;;;;;;7.68;2.55;;;;;;;;;;10114317;29;20117;-68
2022/05/08 17:31:00;;;;;;;7.28;3.30;;;;;;;;;;10107397;29;20337;-69
2022/05/08 17:36:03;;;;;;;8.50;3.00;;;;;;;;;;10073210;29;20057;-68
2022/05/08 17:41:06;;;;;;;12.50;4.65;;;;;;;;;;10074563;29;20101;-68
2022/05/08 17:46:09;;;;;;;11.68;3.53;;;;;;;;;;10075906;29;20060;-69
2022/05/08 17:51:11;;;;;;;9.52;3.20;;;;;;;;;;10111940;29;20049;-68
2022/05/08 17:56:16;;;;;;;15.68;5.28;;;;;;;;;;10112530;29;20248;-67
2022/05/08 18:01:19;;;;;;;13.77;3.27;;;;;;;;;;10112686;29;20092;-67
2022/05/08 18:06:21;;;;;;;18.45;4.22;;;;;;;;;;10112592;29;20319;-68
2022/05/08 18:11:25;;;;;;;9.63;3.67;;;;;;;;;;10077888;29;20278;-68
2022/05/08 18:16:28;;;;;;;10.63;3.30;;;;;;;;;;10093885;29;20105;-69
2022/05/08 18:21:31;;;;;;;18.48;4.50;;;;;;;;;;10097202;29;20068;-69
2022/05/08 18:26:35;;;;;;;8.50;3.33;;;;;;;;;;10107036;29;20057;-68
2022/05/08 18:31:39;;;;;;;;;;;;;;;;;;10120961;29;20040;-67
2022/05/08 18:36:41;;;;;;;10.18;3.42;;;;;;;;;;10119007;29;19935;-68
2022/05/08 18:41:44;;;;;;;19.45;3.50;;;;;;;;;;10118428;29;20045;-68
2022/05/08 18:46:50;;;;;;;12.40;3.83;;;;;;;;;;10120462;29;20049;-67
2022/05/08 18:51:53;;;;;;;13.43;4.45;;;;;;;;;;10103289;29;20061;-68
2022/05/08 18:56:59;;;;;;;12.43;3.40;;;;;;;;;;10095517;29;20082;-68
2022/05/08 19:02:02;;;;;;;9.57;3.65;;;;;;;;;;10084363;29;20061;-68
2022/05/08 19:07:04;;;;;;;10.85;3.60;;;;;;;;;;10117230;29;20048;-67
2022/05/08 19:12:11;;;;;;;10.35;3.53;;;;;;;;;;10120423;29;20060;-68
2022/05/08 19:17:13;;;;;;;10.52;3.45;;;;;;;;;;10109550;29;20062;-68
2022/05/08 19:22:15;;;;;;;4.60;2.67;;;;;;;;;;10087296;29;20052;-68
2022/05/08 19:27:19;;;;;;;12.73;3.75;;;;;;;;;;10117462;29;20056;-68
2022/05/08 19:38:01;;;;;;;7.40;3.38;;;;;;;;;;10128466;29;20053;-67
2022/05/08 19:43:05;;;;;;;13.80;5.43;;;;;;;;;;10125566;29;20049;-68
2022/05/08 19:48:09;;;;;;;12.23;4.20;;;;;;;;;;10080574;29;20059;-68
2022/05/08 19:53:11;;;;;;;10.50;4.13;;;;;;;;;;10118386;29;20279;-68
2022/05/08 19:58:15;;;;;;;12.60;4.00;;;;;;;;;;10105283;29;20045;-67
2022/05/08 20:03:17;;;;;;;10.82;4.00;;;;;;;;;;10097616;29;20071;-66
2022/05/08 20:08:20;;;;;;;10.23;4.53;;;;;;;;;;10115987;29;20076;-68
2022/05/08 20:13:23;;;;;;;12.07;5.82;;;;;;;;;;10115594;29;20045;-69
2022/05/08 20:18:26;;;;;;;10.70;7.18;;;;;;;;;;10114163;29;20048;-68
2022/05/08 20:23:28;;;;;;;11.63;9.20;;;;;;;;;;10114134;29;20112;-68
2022/05/08 20:28:32;;;;;;;15.68;10.73;;;;;;;;;;10115879;29;20065;-68
2022/05/08 20:33:34;;;;;;;18.23;12.45;;;;;;;;;;10113712;29;20056;-68
2022/05/08 20:38:37;;;;;;;19.15;14.60;;;;;;;;;;10095097;29;20340;-67
2022/05/08 20:43:41;;;;;;;24.05;16.67;;;;;;;;;;10075417;29;20057;-67
2022/05/08 20:48:43;;;;;;;26.35;18.48;;;;;;;;;;10077108;29;20364;-68
2022/05/08 20:53:45;;;;;;;30.23;20.20;;;;;;;;;;10076571;29;20049;-67
2022/05/08 20:58:49;;;;;;;34.28;21.88;;;;;;;;;;10092345;29;20366;-67
2022/05/08 21:03:52;;;;;;;34.50;22.80;;;;;;;;;;10114589;29;20049;-67
2022/05/08 21:08:55;;;;;;;42.58;24.52;;;;;;;;;;10114206;29;20240;-68
2022/05/08 21:14:00;;;;;;;45.10;24.90;;;;;;;;;;10110318;29;20128;-67
2022/05/08 21:19:03;;;;;;;40.17;26.63;;;;;;;;;;10126723;29;20068;-68
2022/05/08 21:24:06;;;;;;;40.10;25.08;;;;;;;;;;10113317;29;20120;-68
2022/05/08 21:29:12;;;;;;;38.88;24.58;;;;;;;;;;10111810;29;20067;-68
2022/05/08 21:34:14;;;;;;;39.80;26.38;;;;;;;;;;10094082;29;20347;-67
2022/05/08 21:39:17;;;;;;;46.75;27.48;;;;;;;;;;10075001;29;20160;-67
2022/05/08 21:44:21;;;;;;;50.63;27.73;;;;;;;;;;10103465;29;20302;-65
2022/05/08 21:49:23;;;;;;;46.83;28.27;;;;;;;;;;10111408;29;20056;-67
2022/05/08 21:54:25;;;;;;;56.53;29.98;;;;;;;;;;10113368;29;20305;-67
2022/05/08 21:59:29;;;;;;;51.00;28.33;;;;;;;;;;10078887;29;20065;-68
2022/05/08 22:04:33;;;;;;;49.15;28.15;;;;;;;;;;10082001;29;20046;-68
2022/05/08 22:09:36;;;;;;;52.22;27.23;;;;;;;;;;10098030;29;20099;-67
2022/05/08 22:14:39;;;;;;;50.58;27.40;;;;;;;;;;10116680;29;20355;-67
2022/05/08 22:19:42;;;;;;;51.35;27.45;;;;;;;;;;10081611;29;20221;-67
2022/05/08 22:24:44;;;;;;;53.13;28.02;;;;;;;;;;10088663;29;20053;-67
2022/05/08 22:29:47;;;;;;;51.65;27.92;;;;;;;;;;10082187;29;20308;-67
2022/05/08 22:34:50;;;;;;;50.80;27.33;;;;;;;;;;10082445;29;20099;-67
2022/05/08 22:39:52;;;;;;;52.05;27.10;;;;;;;;;;10105102;29;20061;-69
2022/05/08 22:44:56;;;;;;;54.38;27.85;;;;;;;;;;10081635;29;20057;-67
2022/05/08 22:49:58;;;;;;;50.50;26.20;;;;;;;;;;10080029;29;20302;-67
2022/05/08 22:55:00;;;;;;;51.40;25.98;;;;;;;;;;10078864;29;20053;-67
2022/05/08 23:00:06;;;;;;;54.33;25.65;;;;;;;;;;10078762;29;20065;-67
2022/05/08 23:05:09;;;;;;;46.88;24.58;;;;;;;;;;10088827;29;20056;-67
2022/05/08 23:10:11;;;;;;;52.63;24.13;;;;;;;;;;10117986;29;20049;-67
2022/05/08 23:15:27;;;;;;;49.65;25.23;;;;;;;;;;10113451;29;20053;-68
2022/05/08 23:20:34;;;;;;;50.65;25.60;;;;;;;;;;10085786;29;20060;-67
2022/05/08 23:25:38;;;;;;;47.80;24.00;;;;;;;;;;10083112;29;20076;-67
2022/05/08 23:30:44;;;;;;;51.55;24.45;;;;;;;;;;10079012;29;20052;-67
2022/05/08 23:35:46;;;;;;;46.22;23.23;;;;;;;;;;10088465;29;20052;-68
2022/05/08 23:40:50;;;;;;;49.67;24.67;;;;;;;;;;10101023;29;20050;-68
2022/05/08 23:45:54;;;;;;;54.10;24.20;;;;;;;;;;10078627;29;20404;-68
2022/05/08 23:51:22;;;;;;;46.08;23.98;;;;;;;;;;10084861;29;20045;-68
2022/05/08 23:56:21;;;;;;;51.58;23.83;;;;;;;;;;10111531;29;20214;-68
